createdAt,value
2018-06-09T00:01:13.604Z,99.30
2018-06-09T00:03:42.013Z,99.60
2018-06-09T00:06:10.453Z,99.30
2018-06-09T00:08:38.812Z,98.80
2018-06-09T00:11:07.243Z,98.90
2018-06-09T00:13:35.664Z,99.40
2018-06-09T00:16:04.133Z,98.80
2018-06-09T00:18:32.572Z,98.90
2018-06-09T00:21:01.068Z,98.70
2018-06-09T00:23:29.496Z,97.90
2018-06-09T00:25:57.892Z,97.60
2018-06-09T00:28:26.272Z,97.30
2018-06-09T00:30:54.684Z,97.50
2018-06-09T00:33:23.076Z,97.10
2018-06-09T00:35:51.480Z,96.90
2018-06-09T00:38:19.925Z,97.30
2018-06-09T00:40:48.297Z,97.70
2018-06-09T00:43:16.764Z,97.50
2018-06-09T00:45:45.216Z,98.00
2018-06-09T00:48:13.674Z,97.70
2018-06-09T00:50:42.154Z,97.90
2018-06-09T00:53:10.585Z,98.10
2018-06-09T00:55:39.036Z,97.80
2018-06-09T00:58:07.485Z,97.80
2018-06-09T01:00:35.965Z,98.60
2018-06-09T01:03:04.460Z,99.50
2018-06-09T01:05:32.811Z,99.80
2018-06-09T01:08:01.354Z,99.90
2018-06-09T01:10:29.776Z,99.90
2018-06-09T01:12:58.287Z,99.90
2018-06-09T01:15:26.742Z,99.90
2018-06-09T01:17:55.240Z,99.90
2018-06-09T01:20:24.733Z,99.90
2018-06-09T01:22:53.173Z,99.90
2018-06-09T01:25:21.615Z,99.90
2018-06-09T01:27:50.081Z,99.90
2018-06-09T01:30:18.713Z,99.90
2018-06-09T01:32:47.163Z,99.90
2018-06-09T01:35:15.641Z,99.90
2018-06-09T01:37:44.388Z,99.70
2018-06-09T01:42:40.982Z,99.70
2018-06-09T01:45:09.477Z,99.90
2018-06-09T01:47:37.981Z,99.90
2018-06-09T01:50:06.501Z,99.70
2018-06-09T01:52:35.023Z,99.70
2018-06-09T01:55:03.585Z,99.80
2018-06-09T01:57:32.095Z,99.90
2018-06-09T02:00:00.568Z,99.90
2018-06-09T02:02:29.087Z,99.90
2018-06-09T02:04:57.592Z,99.90
2018-06-09T02:07:26.029Z,99.90
2018-06-09T02:09:54.533Z,99.90
2018-06-09T02:12:23.025Z,99.90
2018-06-09T02:14:51.475Z,99.90
2018-06-09T02:17:19.991Z,99.90
2018-06-09T02:19:48.476Z,99.90
2018-06-09T02:22:16.961Z,99.90
2018-06-09T02:24:45.452Z,99.90
2018-06-09T02:27:13.950Z,99.90
2018-06-09T02:29:42.420Z,99.90
2018-06-09T02:32:10.853Z,99.90
2018-06-09T02:34:39.340Z,99.90
2018-06-09T02:37:07.804Z,99.80
2018-06-09T02:39:36.296Z,99.90
2018-06-09T02:42:04.779Z,99.70
2018-06-09T02:44:33.247Z,99.60
2018-06-09T02:47:01.746Z,99.40
2018-06-09T02:49:30.259Z,99.90
2018-06-09T02:51:58.693Z,99.90
2018-06-09T02:54:27.213Z,99.90
2018-06-09T02:56:55.661Z,99.90
2018-06-09T02:59:24.115Z,99.90
2018-06-09T03:01:52.529Z,99.90
2018-06-09T03:04:21.018Z,99.90
2018-06-09T03:06:49.487Z,99.90
2018-06-09T03:09:18.951Z,99.90
2018-06-09T03:11:47.373Z,99.90
2018-06-09T03:14:15.860Z,99.90
2018-06-09T03:16:44.307Z,99.90
2018-06-09T03:19:12.771Z,99.90
2018-06-09T03:21:41.246Z,99.90
2018-06-09T03:24:09.738Z,99.90
2018-06-09T03:26:38.180Z,99.90
2018-06-09T03:29:06.617Z,99.90
2018-06-09T03:31:35.057Z,99.90
2018-06-09T03:34:03.436Z,99.90
2018-06-09T03:36:31.923Z,99.90
2018-06-09T03:39:00.425Z,99.90
2018-06-09T03:41:29.993Z,99.90
2018-06-09T03:46:26.656Z,99.90
2018-06-09T03:48:55.078Z,99.90
2018-06-09T03:51:23.633Z,99.90
2018-06-09T03:53:52.028Z,99.90
2018-06-09T03:56:20.504Z,99.90
2018-06-09T03:58:48.923Z,99.90
2018-06-09T04:01:17.368Z,99.90
2018-06-09T04:03:45.809Z,99.90
2018-06-09T04:06:14.302Z,99.90
2018-06-09T04:08:42.757Z,99.90
2018-06-09T04:11:11.244Z,99.90
2018-06-09T04:13:39.721Z,99.90
2018-06-09T04:16:08.197Z,99.90
2018-06-09T04:18:36.671Z,99.90
2018-06-09T04:21:05.184Z,99.90
2018-06-09T04:23:33.572Z,99.90
2018-06-09T04:26:02.080Z,99.90
2018-06-09T04:28:30.643Z,99.90
2018-06-09T04:30:59.083Z,99.90
2018-06-09T04:33:27.520Z,99.90
2018-06-09T04:35:55.764Z,99.90
2018-06-09T04:40:51.882Z,99.90
2018-06-09T04:43:20.146Z,99.90
2018-06-09T04:45:48.328Z,99.90
2018-06-09T04:48:16.526Z,99.90
2018-06-09T04:50:44.727Z,99.90
2018-06-09T04:53:12.959Z,99.90
2018-06-09T04:55:41.160Z,99.90
2018-06-09T04:58:09.368Z,99.90
2018-06-09T05:00:37.591Z,99.90
2018-06-09T05:03:05.783Z,99.90
2018-06-09T05:05:33.971Z,99.90
2018-06-09T05:08:02.179Z,99.90
2018-06-09T05:10:30.372Z,99.90
2018-06-09T05:12:58.602Z,99.90
2018-06-09T05:15:26.812Z,99.90
2018-06-09T05:17:55.036Z,99.90
2018-06-09T05:20:23.246Z,99.90
2018-06-09T05:22:51.458Z,99.90
2018-06-09T05:25:19.672Z,99.90
2018-06-09T05:27:47.888Z,99.90
2018-06-09T05:30:16.107Z,99.90
2018-06-09T05:32:44.336Z,99.90
2018-06-09T05:35:12.565Z,99.90
2018-06-09T05:37:40.776Z,99.90
2018-06-09T05:40:08.993Z,99.90
2018-06-09T05:42:37.199Z,99.90
2018-06-09T05:47:33.365Z,99.90
2018-06-09T05:50:01.564Z,99.90
2018-06-09T05:52:29.796Z,99.90
2018-06-09T05:54:58.002Z,99.90
2018-06-09T05:57:26.238Z,99.90
2018-06-09T05:59:54.439Z,99.90
2018-06-09T06:02:22.642Z,99.90
2018-06-09T06:04:50.875Z,99.90
2018-06-09T06:07:19.145Z,99.90
2018-06-09T06:09:47.407Z,99.90
2018-06-09T06:12:15.599Z,99.90
2018-06-09T06:14:43.842Z,99.90
2018-06-09T06:17:12.045Z,99.90
2018-06-09T06:19:40.264Z,99.90
2018-06-09T06:22:08.472Z,99.90
2018-06-09T06:24:36.690Z,99.90
2018-06-09T06:27:04.906Z,99.90
2018-06-09T06:29:33.120Z,99.90
2018-06-09T06:32:01.367Z,99.90
2018-06-09T06:34:29.555Z,99.90
2018-06-09T06:36:57.747Z,99.90
2018-06-09T06:39:25.938Z,99.90
2018-06-09T06:41:54.142Z,99.90
2018-06-09T06:44:22.327Z,99.90
2018-06-09T06:46:50.518Z,99.90
2018-06-09T06:49:18.710Z,99.90
2018-06-09T06:51:46.944Z,99.50
2018-06-09T06:54:15.178Z,98.70
2018-06-09T06:56:43.368Z,98.70
2018-06-09T06:59:11.568Z,98.80
2018-06-09T07:01:39.772Z,99.10
2018-06-09T07:04:07.967Z,98.30
2018-06-09T07:06:36.150Z,98.60
2018-06-09T07:09:07.066Z,98.60
2018-06-09T07:11:35.338Z,99.20
2018-06-09T07:14:03.552Z,99.00
2018-06-09T07:16:31.769Z,99.10
2018-06-09T07:19:00.352Z,98.40
2018-06-09T07:21:28.553Z,98.10
2018-06-09T07:23:56.731Z,96.90
2018-06-09T07:26:24.939Z,96.70
2018-06-09T07:28:53.126Z,96.70
2018-06-09T07:31:21.333Z,97.00
2018-06-09T07:33:49.521Z,97.70
2018-06-09T07:36:17.743Z,97.70
2018-06-09T07:38:45.927Z,97.20
2018-06-09T07:41:14.135Z,97.20
2018-06-09T07:43:42.368Z,97.70
2018-06-09T07:46:10.567Z,97.00
2018-06-09T07:48:38.759Z,97.50
2018-06-09T07:51:06.960Z,97.90
2018-06-09T07:53:35.128Z,97.80
2018-06-09T07:56:03.735Z,97.80
2018-06-09T07:58:32.403Z,97.20
2018-06-09T08:01:01.171Z,97.30
2018-06-09T08:03:29.406Z,97.00
2018-06-09T08:05:57.636Z,97.60
2018-06-09T08:08:25.908Z,97.10
2018-06-09T08:10:54.160Z,97.40
2018-06-09T08:13:22.642Z,97.20
2018-06-09T08:15:50.892Z,96.60
2018-06-09T08:18:19.613Z,96.30
2018-06-09T08:20:47.936Z,96.60
2018-06-09T08:23:16.169Z,97.00
2018-06-09T08:25:45.194Z,96.90
2018-06-09T08:28:13.435Z,96.60
2018-06-09T08:30:41.679Z,96.60
2018-06-09T08:33:09.917Z,96.90
2018-06-09T08:35:38.134Z,94.90
2018-06-09T08:38:06.445Z,94.10
2018-06-09T08:40:34.723Z,95.20
2018-06-09T08:43:03.105Z,93.60
2018-06-09T08:45:31.405Z,92.60
2018-06-09T08:47:59.701Z,92.90
2018-06-09T08:50:28.105Z,91.50
2018-06-09T08:52:56.355Z,91.30
2018-06-09T08:55:24.546Z,91.10
2018-06-09T08:57:53.096Z,91.10
2018-06-09T09:00:21.352Z,89.60
2018-06-09T09:02:49.567Z,89.80
2018-06-09T09:05:17.754Z,88.10
2018-06-09T09:07:46.000Z,90.00
2018-06-09T09:10:14.212Z,88.70
2018-06-09T09:12:42.456Z,87.80
2018-06-09T09:15:10.840Z,83.70
2018-06-09T09:17:39.062Z,83.70
2018-06-09T09:20:07.288Z,84.20
2018-06-09T09:22:35.533Z,84.30
2018-06-09T09:25:03.866Z,83.20
2018-06-09T09:27:32.131Z,83.70
2018-06-09T09:30:00.339Z,83.40
2018-06-09T09:32:29.092Z,84.50
2018-06-09T09:34:57.469Z,82.80
2018-06-09T09:37:25.727Z,84.80
2018-06-09T09:42:23.280Z,81.30
2018-06-09T09:44:51.790Z,82.20
2018-06-09T09:47:21.500Z,81.60
2018-06-09T09:49:50.045Z,84.10
2018-06-09T09:52:18.612Z,84.40
2018-06-09T09:54:47.192Z,83.20
2018-06-09T09:57:17.008Z,80.30
2018-06-09T09:59:48.252Z,83.00
2018-06-09T10:02:18.213Z,81.30
2018-06-09T10:04:57.056Z,79.80
2018-06-09T10:07:25.420Z,78.20
2018-06-09T10:09:53.775Z,77.80
2018-06-09T10:12:22.118Z,77.90
2018-06-09T10:15:03.482Z,78.20
2018-06-09T10:17:32.000Z,74.30
2018-06-09T10:20:00.303Z,76.40
2018-06-09T10:22:28.593Z,76.40
2018-06-09T10:24:56.856Z,77.20
2018-06-09T10:27:25.110Z,80.40
2018-06-09T10:29:53.584Z,79.70
2018-06-09T10:32:22.060Z,76.80
2018-06-09T10:34:50.843Z,77.20
2018-06-09T10:37:19.859Z,77.20
2018-06-09T10:39:50.300Z,77.00
2018-06-09T10:42:19.528Z,69.90
2018-06-09T10:47:51.385Z,69.10
2018-06-09T10:50:25.174Z,69.60
2018-06-09T10:53:00.077Z,67.40
2018-06-09T10:57:59.776Z,67.20
2018-06-09T11:00:28.500Z,66.20
2018-06-09T11:02:58.470Z,67.60
2018-06-09T11:05:28.056Z,61.30
2018-06-09T11:07:56.743Z,62.30
2018-06-09T11:10:26.620Z,63.00
2018-06-09T11:12:57.241Z,60.60
2018-06-09T11:15:31.467Z,64.20
2018-06-09T11:17:59.899Z,66.50
2018-06-09T11:22:12.258Z,71.80
2018-06-09T11:24:44.858Z,74.50
2018-06-09T11:30:18.216Z,79.80
2018-06-09T11:32:46.841Z,80.90
2018-06-09T11:35:20.878Z,81.90
2018-06-09T11:37:50.109Z,82.70
2018-06-09T11:40:18.648Z,78.40
2018-06-09T11:42:47.285Z,77.40
2018-06-09T11:45:15.587Z,78.40
2018-06-09T11:47:44.323Z,78.40
2018-06-09T11:50:12.743Z,78.40
2018-06-09T11:52:42.911Z,80.40
2018-06-09T11:55:15.269Z,80.60
2018-06-09T11:58:14.814Z,74.70
2018-06-09T12:00:53.783Z,74.20
2018-06-09T12:09:13.625Z,75.00
2018-06-09T12:11:43.328Z,74.20
2018-06-09T12:14:11.906Z,76.20
2018-06-09T12:24:01.433Z,78.00
2018-06-09T12:31:21.802Z,79.90
2018-06-09T12:33:54.648Z,78.20
2018-06-09T12:36:23.486Z,81.20
2018-06-09T12:38:52.101Z,80.90
2018-06-09T12:41:21.993Z,81.70
2018-06-09T12:43:54.047Z,82.30
2018-06-09T12:46:22.731Z,82.00
2018-06-09T12:48:52.074Z,81.90
2018-06-09T12:51:20.623Z,82.70
2018-06-09T12:53:49.310Z,84.00
2018-06-09T12:56:17.825Z,85.30
2018-06-09T12:58:48.430Z,85.90
2018-06-09T13:01:17.297Z,87.60
2018-06-09T13:03:48.620Z,87.90
2018-06-09T13:06:20.120Z,86.10
2018-06-09T13:08:48.757Z,88.60
2018-06-09T13:11:17.566Z,87.80
2018-06-09T13:14:01.416Z,86.40
2018-06-09T13:16:31.883Z,87.80
2018-06-09T13:19:15.310Z,83.90
2018-06-09T13:21:45.806Z,85.30
2018-06-09T13:24:15.743Z,84.10
2018-06-09T13:26:45.397Z,84.10
2018-06-09T13:29:17.927Z,83.00
2018-06-09T13:31:46.695Z,83.20
2018-06-09T13:34:15.153Z,80.20
2018-06-09T13:36:44.953Z,81.30
2018-06-09T13:39:13.587Z,80.70
2018-06-09T13:41:42.960Z,80.80
2018-06-09T13:44:12.459Z,81.60
2018-06-09T13:46:40.968Z,79.80
2018-06-09T13:49:09.471Z,78.40
2018-06-09T13:51:38.211Z,78.80
2018-06-09T13:54:06.756Z,77.90
2018-06-09T13:56:35.415Z,77.90
2018-06-09T13:59:04.057Z,79.20
2018-06-09T14:01:32.709Z,77.00
2018-06-09T14:04:01.357Z,79.60
2018-06-09T14:08:58.373Z,79.90
2018-06-09T14:11:26.865Z,79.40
2018-06-09T14:13:55.577Z,78.90
2018-06-09T14:18:59.632Z,78.00
2018-06-09T14:21:29.719Z,76.00
2018-06-09T14:24:00.830Z,77.60
2018-06-09T14:26:30.980Z,80.00
2018-06-09T14:29:04.641Z,77.00
2018-06-09T14:31:38.271Z,77.60
2018-06-09T14:34:06.945Z,78.80
2018-06-09T14:36:36.897Z,81.00
2018-06-09T14:39:07.705Z,80.00
2018-06-09T14:41:48.036Z,79.70
2018-06-09T14:44:17.134Z,80.70
2018-06-09T14:46:45.666Z,79.60
2018-06-09T14:49:14.183Z,80.00
2018-06-09T14:51:42.556Z,78.00
2018-06-09T14:56:41.673Z,78.70
2018-06-09T14:59:10.208Z,78.90
2018-06-09T15:01:38.700Z,79.30
2018-06-09T15:04:09.098Z,82.50
2018-06-09T15:09:46.816Z,79.60
2018-06-09T15:12:23.941Z,81.20
2018-06-09T15:15:05.105Z,80.60
2018-06-09T15:17:35.925Z,81.10
2018-06-09T15:20:04.730Z,79.90
2018-06-09T15:22:37.207Z,81.90
2018-06-09T15:27:56.984Z,82.10
2018-06-09T15:30:25.385Z,83.50
2018-06-09T15:32:55.489Z,83.70
2018-06-09T15:35:25.893Z,83.10
2018-06-09T15:37:54.244Z,85.80
2018-06-09T15:40:22.681Z,84.30
2018-06-09T15:42:51.092Z,84.70
2018-06-09T15:45:19.580Z,85.40
2018-06-09T15:47:47.961Z,86.90
2018-06-09T15:52:44.876Z,86.40
2018-06-09T15:55:20.086Z,86.00
2018-06-09T15:57:49.737Z,87.00
2018-06-09T16:00:22.351Z,86.90
2018-06-09T16:02:50.836Z,87.00
2018-06-09T16:05:19.446Z,86.30
2018-06-09T16:07:48.407Z,88.00
2018-06-09T16:10:17.872Z,88.40
2018-06-09T16:12:49.287Z,88.20
2018-06-09T16:15:17.881Z,90.00
2018-06-09T16:17:46.565Z,88.80
2018-06-09T16:20:14.961Z,89.00
2018-06-09T16:22:43.236Z,89.30
2018-06-09T16:25:12.040Z,89.20
2018-06-09T16:27:41.456Z,89.70
2018-06-09T16:30:10.222Z,90.20
2018-06-09T16:32:38.986Z,89.50
2018-06-09T16:35:07.439Z,89.50
2018-06-09T16:37:35.715Z,90.40
2018-06-09T16:40:04.875Z,90.80
2018-06-09T16:42:33.432Z,91.00
2018-06-09T16:45:02.232Z,91.20
2018-06-09T16:47:30.574Z,91.20
2018-06-09T16:49:59.136Z,91.00
2018-06-09T16:52:27.525Z,91.30
2018-06-09T16:54:55.844Z,91.50
2018-06-09T16:57:24.303Z,91.00
2018-06-09T16:59:52.747Z,91.70
2018-06-09T17:02:21.116Z,91.80
2018-06-09T17:04:49.479Z,90.90
2018-06-09T17:07:18.116Z,91.20
2018-06-09T17:09:46.668Z,91.10
2018-06-09T17:12:15.264Z,91.50
2018-06-09T17:14:43.836Z,92.00
2018-06-09T17:17:15.377Z,92.00
2018-06-09T17:19:43.952Z,92.40
2018-06-09T17:22:12.507Z,92.60
2018-06-09T17:24:41.074Z,94.10
2018-06-09T17:27:28.456Z,94.90
2018-06-09T17:29:57.015Z,94.40
2018-06-09T17:32:25.650Z,95.00
2018-06-09T17:34:54.386Z,95.20
2018-06-09T17:37:23.121Z,96.10
2018-06-09T17:39:51.800Z,95.00
2018-06-09T17:42:20.381Z,95.40
2018-06-09T17:44:49.365Z,96.20
2018-06-09T17:47:20.787Z,96.70
2018-06-09T17:49:50.248Z,96.80
2018-06-09T17:52:19.206Z,96.20
2018-06-09T17:54:47.795Z,96.90
2018-06-09T17:57:17.218Z,97.20
2018-06-09T17:59:45.852Z,96.90
2018-06-09T18:02:14.427Z,96.10
2018-06-09T18:04:42.927Z,95.70
2018-06-09T18:07:20.851Z,95.20
2018-06-09T18:09:49.468Z,95.60
2018-06-09T18:12:18.483Z,95.50
2018-06-09T18:14:46.745Z,95.70
2018-06-09T18:17:15.551Z,96.00
2018-06-09T18:19:43.990Z,95.30
2018-06-09T18:22:15.473Z,94.60
2018-06-09T18:24:55.961Z,95.50
2018-06-09T18:29:52.464Z,95.90
2018-06-09T18:32:20.851Z,96.30
2018-06-09T18:34:49.175Z,96.30
2018-06-09T18:37:17.868Z,96.90
2018-06-09T18:39:46.452Z,97.20
2018-06-09T18:42:16.583Z,97.10
2018-06-09T18:47:25.158Z,97.20
2018-06-09T18:49:57.620Z,97.50
2018-06-09T18:52:26.121Z,98.00
2018-06-09T18:54:54.739Z,98.60
2018-06-09T18:57:23.152Z,98.90
2018-06-09T18:59:51.627Z,98.40
2018-06-09T19:02:20.525Z,99.10
2018-06-09T19:04:50.500Z,98.80
2018-06-09T19:07:19.072Z,99.00
2018-06-09T19:09:47.664Z,98.80
2018-06-09T19:12:16.180Z,98.70
2018-06-09T19:14:44.691Z,97.80
2018-06-09T19:17:13.009Z,97.80
2018-06-09T19:19:41.409Z,97.80
2018-06-09T19:22:10.005Z,98.40
2018-06-09T19:24:38.658Z,98.60
2018-06-09T19:27:07.210Z,98.30
2018-06-09T19:29:35.767Z,98.40
2018-06-09T19:32:04.308Z,97.90
2018-06-09T19:34:32.890Z,97.50
2018-06-09T19:37:01.476Z,97.20
2018-06-09T19:39:31.010Z,97.10
2018-06-09T19:41:59.357Z,97.80
2018-06-09T19:44:27.889Z,97.90
2018-06-09T19:46:56.269Z,98.40
2018-06-09T19:49:25.091Z,98.20
2018-06-09T19:51:53.602Z,98.20
2018-06-09T19:54:22.013Z,97.80
2018-06-09T19:59:18.765Z,97.30
2018-06-09T20:01:47.231Z,97.30
2018-06-09T20:04:15.810Z,97.60
2018-06-09T20:06:45.892Z,97.60
2018-06-09T20:09:15.140Z,97.50
2018-06-09T20:11:43.399Z,97.50
2018-06-09T20:14:38.968Z,97.80
2018-06-09T20:17:07.271Z,97.90
2018-06-09T20:19:35.956Z,97.90
2018-06-09T20:22:04.474Z,97.90
2018-06-09T20:24:33.061Z,98.50
2018-06-09T20:27:01.564Z,98.70
2018-06-09T20:29:30.153Z,98.40
2018-06-09T20:31:58.733Z,98.70
2018-06-09T20:34:27.474Z,98.50
2018-06-09T20:36:55.978Z,98.50
2018-06-09T20:39:24.498Z,97.60
2018-06-09T20:41:53.127Z,97.50
2018-06-09T20:44:21.840Z,98.30
2018-06-09T20:46:50.416Z,98.30
2018-06-09T20:49:19.060Z,98.80
2018-06-09T20:51:47.762Z,99.20
2018-06-09T20:54:16.457Z,99.30
2018-06-09T20:56:44.978Z,98.60
2018-06-09T20:59:13.487Z,98.40
2018-06-09T21:01:42.056Z,98.30
2018-06-09T21:04:10.558Z,97.70
2018-06-09T21:06:39.105Z,98.50
2018-06-09T21:09:08.059Z,98.60
2018-06-09T21:11:36.525Z,97.80
2018-06-09T21:14:05.107Z,97.90
2018-06-09T21:16:33.608Z,98.10
2018-06-09T21:19:02.186Z,97.40
2018-06-09T21:21:30.633Z,97.50
2018-06-09T21:24:00.981Z,97.60
2018-06-09T21:26:34.725Z,98.00
2018-06-09T21:29:07.430Z,98.10
2018-06-09T21:31:40.125Z,98.00
2018-06-09T21:34:25.163Z,98.00
2018-06-09T21:36:57.215Z,97.80
2018-06-09T21:39:33.238Z,97.70
2018-06-09T21:42:07.858Z,97.50
2018-06-09T21:44:37.420Z,97.60
2018-06-09T21:47:06.368Z,97.30
2018-06-09T21:49:34.953Z,97.60
2018-06-09T21:52:03.581Z,98.40
2018-06-09T21:54:32.182Z,98.40
2018-06-09T21:57:00.704Z,98.30
2018-06-09T21:59:29.198Z,98.50
2018-06-09T22:01:57.822Z,98.70
2018-06-09T22:04:26.397Z,98.10
2018-06-09T22:06:55.029Z,98.00
2018-06-09T22:09:23.558Z,98.10
2018-06-09T22:11:52.108Z,98.30
2018-06-09T22:14:20.678Z,97.80
2018-06-09T22:16:49.168Z,98.20
2018-06-09T22:19:17.629Z,98.60
2018-06-09T22:21:46.131Z,99.10
2018-06-09T22:24:14.683Z,99.40
2018-06-09T22:26:43.292Z,99.60
2018-06-09T22:29:11.732Z,99.80
2018-06-09T22:31:40.224Z,99.90
2018-06-09T22:34:08.824Z,98.80
2018-06-09T22:36:37.380Z,98.70
2018-06-09T22:39:07.562Z,98.90
2018-06-09T22:41:36.088Z,98.40
2018-06-09T22:44:04.980Z,98.40
2018-06-09T22:46:33.524Z,98.00
2018-06-09T22:49:02.049Z,98.00
2018-06-09T22:51:30.564Z,98.10
2018-06-09T22:53:59.043Z,98.20
2018-06-09T22:56:27.552Z,98.30
2018-06-09T22:58:56.165Z,98.30
2018-06-09T23:01:24.666Z,98.60
2018-06-09T23:03:53.134Z,98.70
2018-06-09T23:06:21.598Z,98.80
2018-06-09T23:08:51.234Z,99.40
2018-06-09T23:11:19.771Z,99.80
2018-06-09T23:13:48.282Z,99.80
2018-06-09T23:18:52.527Z,99.70
2018-06-09T23:21:21.016Z,99.10
2018-06-09T23:23:49.633Z,99.30
2018-06-09T23:26:18.232Z,99.20
2018-06-09T23:28:46.780Z,99.10
2018-06-09T23:31:15.231Z,98.80
2018-06-09T23:33:43.752Z,98.30
2018-06-09T23:36:12.140Z,98.30
2018-06-09T23:38:40.640Z,98.20
2018-06-09T23:41:09.083Z,98.90
2018-06-09T23:43:37.505Z,99.20
2018-06-09T23:46:05.994Z,99.30
2018-06-09T23:48:38.164Z,99.60
2018-06-09T23:51:06.703Z,99.80
2018-06-09T23:53:35.168Z,99.90
2018-06-09T23:56:03.643Z,99.90
2018-06-09T23:58:32.138Z,99.90
